createdAt,value
2018-03-28T00:00:19.585Z,0.00
2018-03-28T00:02:48.095Z,0.00
2018-03-28T00:05:15.922Z,-0.10
2018-03-28T00:07:43.698Z,-0.10
2018-03-28T00:10:12.229Z,-0.10
2018-03-28T00:12:40.059Z,-0.20
2018-03-28T00:15:07.873Z,-0.20
2018-03-28T00:17:35.625Z,-0.20
2018-03-28T00:20:03.435Z,-0.20
2018-03-28T00:22:31.183Z,-0.20
2018-03-28T00:24:59.716Z,-0.30
2018-03-28T00:27:27.522Z,-0.30
2018-03-28T00:29:56.031Z,-0.20
2018-03-28T00:32:23.798Z,-0.20
2018-03-28T00:34:51.628Z,0.00
2018-03-28T00:37:20.161Z,0.00
2018-03-28T00:39:47.920Z,0.00
2018-03-28T00:42:15.753Z,0.00
2018-03-28T00:44:43.524Z,0.00
2018-03-28T00:47:11.271Z,-0.10
2018-03-28T00:49:39.076Z,-0.10
2018-03-28T00:52:06.869Z,-0.20
2018-03-28T00:54:34.693Z,-0.20
2018-03-28T00:57:02.523Z,-0.30
2018-03-28T00:59:30.288Z,-0.30
2018-03-28T01:01:58.068Z,-0.30
2018-03-28T01:04:25.888Z,-0.30
2018-03-28T01:06:53.641Z,-0.40
2018-03-28T01:09:21.435Z,-0.40
2018-03-28T01:11:49.302Z,-0.40
2018-03-28T01:14:17.060Z,-0.40
2018-03-28T01:16:44.811Z,-0.40
2018-03-28T01:19:13.381Z,-0.40
2018-03-28T01:21:41.935Z,-0.40
2018-03-28T01:24:09.930Z,-0.40
2018-03-28T01:26:38.505Z,-0.40
2018-03-28T01:29:06.251Z,-0.40
2018-03-28T01:31:34.005Z,-0.40
2018-03-28T01:34:01.797Z,-0.40
2018-03-28T01:36:30.330Z,-0.40
2018-03-28T01:38:58.090Z,-0.40
2018-03-28T01:41:25.891Z,-0.40
2018-03-28T01:43:53.642Z,-0.40
2018-03-28T01:46:21.401Z,-0.40
2018-03-28T01:48:49.206Z,-0.40
2018-03-28T01:51:16.965Z,-0.40
2018-03-28T01:53:44.718Z,-0.40
2018-03-28T01:56:13.292Z,-0.40
2018-03-28T01:58:41.813Z,-0.30
2018-03-28T02:01:09.579Z,-0.40
2018-03-28T02:03:37.389Z,-0.30
2018-03-28T02:06:05.173Z,-0.30
2018-03-28T02:08:32.921Z,-0.30
2018-03-28T02:11:01.485Z,-0.40
2018-03-28T02:13:29.237Z,-0.40
2018-03-28T02:15:56.985Z,-0.40
2018-03-28T02:18:24.784Z,-0.40
2018-03-28T02:20:53.298Z,-0.30
2018-03-28T02:23:21.064Z,-0.40
2018-03-28T02:25:48.864Z,-0.30
2018-03-28T02:28:16.625Z,-0.30
2018-03-28T02:30:44.376Z,-0.30
2018-03-28T02:33:12.179Z,-0.20
2018-03-28T02:35:40.703Z,-0.20
2018-03-28T02:38:08.465Z,-0.20
2018-03-28T02:40:36.271Z,-0.10
2018-03-28T02:43:04.029Z,-0.20
2018-03-28T02:45:31.780Z,-0.20
2018-03-28T02:47:59.606Z,-0.10
2018-03-28T02:50:27.356Z,-0.10
2018-03-28T02:52:55.118Z,-0.10
2018-03-28T02:55:22.922Z,-0.10
2018-03-28T02:57:50.670Z,-0.10
2018-03-28T03:00:18.418Z,0.00
2018-03-28T03:02:46.243Z,0.00
2018-03-28T03:05:14.757Z,0.00
2018-03-28T03:07:42.503Z,0.00
2018-03-28T03:10:10.303Z,0.00
2018-03-28T03:12:38.085Z,0.00
2018-03-28T03:15:05.841Z,-0.10
2018-03-28T03:17:33.642Z,0.00
2018-03-28T03:20:01.391Z,0.00
2018-03-28T03:22:29.189Z,0.00
2018-03-28T03:24:57.006Z,0.00
2018-03-28T03:27:25.546Z,0.00
2018-03-28T03:29:53.286Z,0.00
2018-03-28T03:32:21.081Z,0.10
2018-03-28T03:34:48.890Z,0.10
2018-03-28T03:37:17.468Z,0.20
2018-03-28T03:39:46.027Z,0.20
2018-03-28T03:42:13.773Z,0.20
2018-03-28T03:44:42.290Z,0.30
2018-03-28T03:47:10.852Z,0.40
2018-03-28T03:49:38.600Z,0.40
2018-03-28T03:52:06.341Z,0.40
2018-03-28T03:54:34.132Z,0.40
2018-03-28T03:57:01.874Z,0.40
2018-03-28T03:59:29.623Z,0.40
2018-03-28T04:01:57.426Z,0.40
2018-03-28T04:04:25.172Z,0.40
2018-03-28T04:06:52.955Z,0.40
2018-03-28T04:09:21.540Z,0.40
2018-03-28T04:11:50.052Z,0.40
2018-03-28T04:14:17.807Z,0.40
2018-03-28T04:16:45.629Z,0.30
2018-03-28T04:19:13.377Z,0.30
2018-03-28T04:21:41.137Z,0.20
2018-03-28T04:24:08.933Z,0.10
2018-03-28T04:26:37.450Z,0.10
2018-03-28T04:29:05.218Z,0.10
2018-03-28T04:31:33.012Z,0.00
2018-03-28T04:34:00.769Z,0.00
2018-03-28T04:36:28.525Z,-0.10
2018-03-28T04:38:56.339Z,-0.10
2018-03-28T04:41:24.137Z,-0.10
2018-03-28T04:43:51.880Z,-0.10
2018-03-28T04:46:19.707Z,-0.10
2018-03-28T04:48:48.233Z,-0.10
2018-03-28T04:51:15.990Z,-0.10
2018-03-28T04:53:43.787Z,0.00
2018-03-28T04:56:11.540Z,0.10
2018-03-28T04:58:39.286Z,0.10
2018-03-28T05:01:07.102Z,0.20
2018-03-28T05:03:35.620Z,0.30
2018-03-28T05:06:03.382Z,0.30
2018-03-28T05:08:31.177Z,0.30
2018-03-28T05:10:58.937Z,0.40
2018-03-28T05:13:26.698Z,0.40
2018-03-28T05:15:54.530Z,0.50
2018-03-28T05:18:22.296Z,0.60
2018-03-28T05:20:50.039Z,0.60
2018-03-28T05:23:17.836Z,0.60
2018-03-28T05:25:45.577Z,0.60
2018-03-28T05:28:13.321Z,0.60
2018-03-28T05:30:41.126Z,0.70
2018-03-28T05:33:08.885Z,0.70
2018-03-28T05:35:36.633Z,0.70
2018-03-28T05:38:04.451Z,0.70
2018-03-28T05:40:32.964Z,0.90
2018-03-28T05:43:00.733Z,0.80
2018-03-28T05:45:28.532Z,0.90
2018-03-28T05:47:56.281Z,1.00
2018-03-28T05:50:24.046Z,1.00
2018-03-28T05:52:51.905Z,1.10
2018-03-28T05:55:19.655Z,1.10
2018-03-28T05:57:48.203Z,1.30
2018-03-28T06:00:16.010Z,1.30
2018-03-28T06:02:43.762Z,1.30
2018-03-28T06:05:11.507Z,1.20
2018-03-28T06:07:39.700Z,1.30
2018-03-28T06:10:08.224Z,1.50
2018-03-28T06:12:36.024Z,1.50
2018-03-28T06:15:03.869Z,1.80
2018-03-28T06:17:31.609Z,1.90
2018-03-28T06:20:00.134Z,3.20
2018-03-28T06:22:27.962Z,3.20
2018-03-28T06:24:55.737Z,4.00
2018-03-28T06:27:23.482Z,4.40
2018-03-28T06:29:51.312Z,4.50
2018-03-28T06:32:19.068Z,4.40
2018-03-28T06:34:46.845Z,4.20
2018-03-28T06:37:15.414Z,4.90
2018-03-28T06:39:43.170Z,4.90
2018-03-28T06:42:10.930Z,5.00
2018-03-28T06:44:41.204Z,5.00
2018-03-28T06:47:08.956Z,4.60
2018-03-28T06:49:36.707Z,4.50
2018-03-28T06:52:05.638Z,4.00
2018-03-28T06:54:33.395Z,3.90
2018-03-28T06:57:01.154Z,3.70
2018-03-28T06:59:29.013Z,4.00
2018-03-28T07:01:56.811Z,4.10
2018-03-28T07:04:24.626Z,4.10
2018-03-28T07:06:52.474Z,4.00
2018-03-28T07:09:20.253Z,4.10
2018-03-28T07:11:48.038Z,4.30
2018-03-28T07:14:15.914Z,4.50
2018-03-28T07:16:43.674Z,4.80
2018-03-28T07:19:12.252Z,4.90
2018-03-28T07:21:40.058Z,4.90
2018-03-28T07:24:08.703Z,4.90
2018-03-28T07:26:36.500Z,4.90
2018-03-28T07:29:05.114Z,4.70
2018-03-28T07:31:32.967Z,4.70
2018-03-28T07:34:00.737Z,5.00
2018-03-28T07:36:28.566Z,5.00
2018-03-28T07:38:57.099Z,5.00
2018-03-28T07:41:24.914Z,5.00
2018-03-28T07:43:53.515Z,4.90
2018-03-28T07:46:21.326Z,4.80
2018-03-28T07:48:49.127Z,4.90
2018-03-28T07:51:17.010Z,4.90
2018-03-28T07:53:44.802Z,4.80
2018-03-28T07:56:12.617Z,4.80
2018-03-28T07:58:41.174Z,5.00
2018-03-28T08:01:08.937Z,5.00
2018-03-28T08:03:36.685Z,5.00
2018-03-28T08:06:04.482Z,5.10
2018-03-28T08:08:33.006Z,5.30
2018-03-28T08:11:00.760Z,5.20
2018-03-28T08:13:28.563Z,5.40
2018-03-28T08:15:56.362Z,5.40
2018-03-28T08:18:24.116Z,5.40
2018-03-28T08:20:51.927Z,5.40
2018-03-28T08:23:19.706Z,5.40
2018-03-28T08:25:47.471Z,5.30
2018-03-28T08:28:15.279Z,5.20
2018-03-28T08:30:43.044Z,5.00
2018-03-28T08:33:10.808Z,5.00
2018-03-28T08:35:38.618Z,5.00
2018-03-28T08:38:06.370Z,4.90
2018-03-28T08:40:34.137Z,5.10
2018-03-28T08:43:01.951Z,5.20
2018-03-28T08:45:29.714Z,5.20
2018-03-28T08:47:57.478Z,5.40
2018-03-28T08:50:25.300Z,5.60
2018-03-28T08:52:53.065Z,5.90
2018-03-28T08:55:20.817Z,6.30
2018-03-28T08:57:49.567Z,6.50
2018-03-28T09:00:18.118Z,6.20
2018-03-28T09:02:45.916Z,6.20
2018-03-28T09:05:13.755Z,6.00
2018-03-28T09:07:41.526Z,5.90
2018-03-28T09:10:09.288Z,5.90
2018-03-28T09:12:37.128Z,5.90
2018-03-28T09:15:06.083Z,5.80
2018-03-28T09:17:33.828Z,5.80
2018-03-28T09:20:02.406Z,6.20
2018-03-28T09:22:30.160Z,6.10
2018-03-28T09:24:57.923Z,6.00
2018-03-28T09:27:25.750Z,6.00
2018-03-28T09:29:54.270Z,5.80
2018-03-28T09:32:22.021Z,5.80
2018-03-28T09:34:49.844Z,5.80
2018-03-28T09:37:18.355Z,5.80
2018-03-28T09:39:46.126Z,5.70
2018-03-28T09:42:13.948Z,5.80
2018-03-28T09:44:42.473Z,5.70
2018-03-28T09:47:10.220Z,5.70
2018-03-28T09:49:38.030Z,5.70
2018-03-28T09:52:05.797Z,5.70
2018-03-28T09:54:33.548Z,5.60
2018-03-28T09:57:01.390Z,5.60
2018-03-28T09:59:29.166Z,5.80
2018-03-28T10:01:58.831Z,6.10
2018-03-28T10:04:27.545Z,6.10
2018-03-28T10:06:55.307Z,6.20
2018-03-28T10:09:23.821Z,6.50
2018-03-28T10:11:51.628Z,6.50
2018-03-28T10:14:19.374Z,6.50
2018-03-28T10:16:47.138Z,6.40
2018-03-28T10:19:14.938Z,6.30
2018-03-28T10:21:42.697Z,6.30
2018-03-28T10:24:10.454Z,6.30
2018-03-28T10:26:38.253Z,6.30
2018-03-28T10:29:06.005Z,6.40
2018-03-28T10:31:33.782Z,6.50
2018-03-28T10:34:01.594Z,6.50
2018-03-28T10:36:29.368Z,6.60
2018-03-28T10:38:57.122Z,6.60
2018-03-28T10:41:24.939Z,6.60
2018-03-28T10:43:53.456Z,6.70
2018-03-28T10:46:21.228Z,6.70
2018-03-28T10:48:49.043Z,7.10
2018-03-28T10:51:17.572Z,7.60
2018-03-28T10:53:46.112Z,7.60
2018-03-28T10:56:14.712Z,7.70
2018-03-28T10:58:42.473Z,7.70
2018-03-28T11:01:10.218Z,8.10
2018-03-28T11:03:38.779Z,8.00
2018-03-28T11:06:06.551Z,8.00
2018-03-28T11:08:35.065Z,8.20
2018-03-28T11:11:02.865Z,8.20
2018-03-28T11:13:30.618Z,8.60
2018-03-28T11:15:58.376Z,8.60
2018-03-28T11:18:26.201Z,8.90
2018-03-28T11:20:53.973Z,8.90
2018-03-28T11:23:21.740Z,8.90
2018-03-28T11:25:49.566Z,8.90
2018-03-28T11:28:18.087Z,9.20
2018-03-28T11:30:45.835Z,9.20
2018-03-28T11:33:13.649Z,8.90
2018-03-28T11:35:41.413Z,9.00
2018-03-28T11:38:09.208Z,9.20
2018-03-28T11:40:37.009Z,9.30
2018-03-28T11:43:04.773Z,9.50
2018-03-28T11:45:32.521Z,9.40
2018-03-28T11:48:00.328Z,9.30
2018-03-28T11:50:28.086Z,9.50
2018-03-28T11:52:55.868Z,9.70
2018-03-28T11:55:23.697Z,9.60
2018-03-28T11:57:51.447Z,9.60
2018-03-28T12:00:22.064Z,9.60
2018-03-28T12:02:49.883Z,9.50
2018-03-28T12:05:18.426Z,9.30
2018-03-28T12:07:46.191Z,9.30
2018-03-28T12:10:13.996Z,9.50
2018-03-28T12:12:42.501Z,9.60
2018-03-28T12:15:10.256Z,9.60
2018-03-28T12:17:38.068Z,9.80
2018-03-28T12:20:05.819Z,9.80
2018-03-28T12:22:33.567Z,9.60
2018-03-28T12:25:01.381Z,9.50
2018-03-28T12:27:29.179Z,9.50
2018-03-28T12:29:56.933Z,9.70
2018-03-28T12:32:24.766Z,9.80
2018-03-28T12:34:53.322Z,9.60
2018-03-28T12:37:21.082Z,9.60
2018-03-28T12:39:49.678Z,9.50
2018-03-28T12:42:17.449Z,9.50
2018-03-28T12:44:45.194Z,9.60
2018-03-28T12:47:13.049Z,9.80
2018-03-28T12:49:40.856Z,10.10
2018-03-28T12:52:08.618Z,10.50
2018-03-28T12:54:36.469Z,11.00
2018-03-28T12:57:04.992Z,11.30
2018-03-28T12:59:32.765Z,11.30
2018-03-28T13:02:00.587Z,10.70
2018-03-28T13:04:28.338Z,10.50
2018-03-28T13:06:56.850Z,10.10
2018-03-28T13:09:24.670Z,10.10
2018-03-28T13:11:53.197Z,10.00
2018-03-28T13:14:21.728Z,10.00
2018-03-28T13:16:49.555Z,10.00
2018-03-28T13:19:17.316Z,9.80
2018-03-28T13:21:45.067Z,9.70
2018-03-28T13:24:12.912Z,9.60
2018-03-28T13:26:40.673Z,9.70
2018-03-28T13:29:08.413Z,9.80
2018-03-28T13:31:37.016Z,10.00
2018-03-28T13:34:04.843Z,10.00
2018-03-28T13:36:33.370Z,9.70
2018-03-28T13:39:01.215Z,9.60
2018-03-28T13:41:28.958Z,9.30
2018-03-28T13:43:57.475Z,9.00
2018-03-28T13:46:25.270Z,9.00
2018-03-28T13:48:53.030Z,9.00
2018-03-28T13:51:20.782Z,9.00
2018-03-28T13:53:48.588Z,8.80
2018-03-28T13:56:16.350Z,8.70
2018-03-28T13:58:44.114Z,8.60
2018-03-28T14:01:11.912Z,8.60
2018-03-28T14:03:39.655Z,8.70
2018-03-28T14:06:07.415Z,8.70
2018-03-28T14:08:35.224Z,8.40
2018-03-28T14:11:02.982Z,8.00
2018-03-28T14:13:36.545Z,7.60
2018-03-28T14:16:04.310Z,7.50
2018-03-28T14:18:32.082Z,7.40
2018-03-28T14:20:59.894Z,7.40
2018-03-28T14:23:28.410Z,7.40
2018-03-28T14:25:56.176Z,7.40
2018-03-28T14:28:23.988Z,7.40
2018-03-28T14:30:51.789Z,7.40
2018-03-28T14:33:19.590Z,7.30
2018-03-28T14:35:47.415Z,7.40
2018-03-28T14:38:15.186Z,7.40
2018-03-28T14:40:42.942Z,7.40
2018-03-28T14:43:10.740Z,7.30
2018-03-28T14:45:38.507Z,7.30
2018-03-28T14:48:06.283Z,7.30
2018-03-28T14:50:34.868Z,7.20
2018-03-28T14:53:02.713Z,7.20
2018-03-28T14:55:30.463Z,7.10
2018-03-28T14:57:58.254Z,7.20
2018-03-28T15:00:26.036Z,7.00
2018-03-28T15:02:54.559Z,7.00
2018-03-28T15:05:22.399Z,7.00
2018-03-28T15:07:50.161Z,7.10
2018-03-28T15:10:17.940Z,7.10
2018-03-28T15:12:45.747Z,7.10
2018-03-28T15:15:14.275Z,7.10
2018-03-28T15:17:42.040Z,7.10
2018-03-28T15:20:09.834Z,7.00
2018-03-28T15:22:37.577Z,7.00
2018-03-28T15:25:05.337Z,7.00
2018-03-28T15:27:33.141Z,7.00
2018-03-28T15:30:00.906Z,7.10
2018-03-28T15:32:29.409Z,7.20
2018-03-28T15:34:57.208Z,7.10
2018-03-28T15:37:25.745Z,7.20
2018-03-28T15:39:54.268Z,7.20
2018-03-28T15:42:22.069Z,7.10
2018-03-28T15:44:50.590Z,7.10
2018-03-28T15:47:18.341Z,7.10
2018-03-28T15:49:46.141Z,7.10
2018-03-28T15:52:13.898Z,7.10
2018-03-28T15:54:41.653Z,7.20
2018-03-28T15:57:09.451Z,7.20
2018-03-28T15:59:37.215Z,7.20
2018-03-28T16:02:04.990Z,7.30
2018-03-28T16:04:33.571Z,7.50
2018-03-28T16:07:02.134Z,7.50
2018-03-28T16:09:29.886Z,7.50
2018-03-28T16:11:57.690Z,7.50
2018-03-28T16:14:25.430Z,7.50
2018-03-28T16:16:53.233Z,7.50
2018-03-28T16:19:21.039Z,7.50
2018-03-28T16:21:48.796Z,7.50
2018-03-28T16:24:16.553Z,7.50
2018-03-28T16:26:44.367Z,7.40
2018-03-28T16:29:12.125Z,7.40
2018-03-28T16:31:39.880Z,7.40
2018-03-28T16:34:08.448Z,7.40
2018-03-28T16:36:36.984Z,7.30
2018-03-28T16:39:04.811Z,7.30
2018-03-28T16:41:32.669Z,7.10
2018-03-28T16:44:01.234Z,6.90
2018-03-28T16:46:29.797Z,6.90
2018-03-28T16:48:57.622Z,6.90
2018-03-28T16:51:25.414Z,6.90
2018-03-28T16:53:53.192Z,6.80
2018-03-28T16:56:21.819Z,6.70
2018-03-28T16:58:49.580Z,6.70
2018-03-28T17:01:17.368Z,6.60
2018-03-28T17:03:46.040Z,6.50
2018-03-28T17:06:13.927Z,6.50
2018-03-28T17:08:41.719Z,6.40
2018-03-28T17:11:10.302Z,6.30
2018-03-28T17:13:38.835Z,6.20
2018-03-28T17:16:06.602Z,6.20
2018-03-28T17:18:34.434Z,6.20
2018-03-28T17:21:02.195Z,6.20
2018-03-28T17:23:30.043Z,6.10
2018-03-28T17:25:57.920Z,6.10
2018-03-28T17:28:25.703Z,6.10
2018-03-28T17:30:53.481Z,6.10
2018-03-28T17:33:21.492Z,6.20
2018-03-28T17:35:50.085Z,6.10
2018-03-28T17:38:17.984Z,6.10
2018-03-28T17:40:45.862Z,6.20
2018-03-28T17:43:13.659Z,6.10
2018-03-28T17:45:42.201Z,6.10
2018-03-28T17:48:10.034Z,6.10
2018-03-28T17:50:37.780Z,6.20
2018-03-28T17:53:06.468Z,6.20
2018-03-28T17:55:34.301Z,6.10
2018-03-28T17:58:03.182Z,6.20
2018-03-28T18:00:31.822Z,6.20
2018-03-28T18:02:59.638Z,6.20
2018-03-28T18:05:27.412Z,6.10
2018-03-28T18:07:55.222Z,6.10
2018-03-28T18:10:23.068Z,6.20
2018-03-28T18:12:52.048Z,6.20
2018-03-28T18:15:20.047Z,6.20
2018-03-28T18:17:47.926Z,6.20
2018-03-28T18:20:15.713Z,6.20
2018-03-28T18:22:43.507Z,6.20
2018-03-28T18:25:11.343Z,6.20
2018-03-28T18:27:40.268Z,6.20
2018-03-28T18:30:09.317Z,6.20
2018-03-28T18:32:37.214Z,6.20
2018-03-28T18:35:04.987Z,6.20
2018-03-28T18:37:32.801Z,6.10
2018-03-28T18:40:00.625Z,6.10
2018-03-28T18:42:28.401Z,6.10
2018-03-28T18:44:56.154Z,6.10
2018-03-28T18:47:23.990Z,6.10
2018-03-28T18:49:51.745Z,6.20
2018-03-28T18:52:20.011Z,6.20
2018-03-28T18:54:48.717Z,6.20
2018-03-28T18:57:16.485Z,6.20
2018-03-28T18:59:44.234Z,6.20
2018-03-28T19:02:12.037Z,6.30
2018-03-28T19:04:39.790Z,6.30
2018-03-28T19:07:07.545Z,6.30
2018-03-28T19:09:35.405Z,6.30
2018-03-28T19:12:03.163Z,6.20
2018-03-28T19:14:30.925Z,6.20
2018-03-28T19:16:58.736Z,6.20
2018-03-28T19:19:26.706Z,6.30
2018-03-28T19:21:55.226Z,6.30
2018-03-28T19:24:23.034Z,6.30
2018-03-28T19:26:50.788Z,6.30
2018-03-28T19:29:18.549Z,6.30
2018-03-28T19:31:46.361Z,6.30
2018-03-28T19:34:14.098Z,6.30
2018-03-28T19:36:42.619Z,6.40
2018-03-28T19:39:11.891Z,6.40
2018-03-28T19:41:40.447Z,6.40
2018-03-28T19:44:08.244Z,6.40
2018-03-28T19:46:36.061Z,6.50
2018-03-28T19:49:03.834Z,6.40
2018-03-28T19:51:32.358Z,6.40
2018-03-28T19:54:00.174Z,6.40
2018-03-28T19:56:28.100Z,6.40
2018-03-28T19:58:55.896Z,6.40
2018-03-28T20:01:23.722Z,6.40
2018-03-28T20:03:51.516Z,6.40
2018-03-28T20:06:19.276Z,6.50
2018-03-28T20:08:47.085Z,6.50
2018-03-28T20:11:14.861Z,6.50
2018-03-28T20:13:42.643Z,6.40
2018-03-28T20:16:10.458Z,6.40
2018-03-28T20:18:38.985Z,6.40
2018-03-28T20:21:06.725Z,6.40
2018-03-28T20:23:34.523Z,6.40
2018-03-28T20:26:02.304Z,6.40
2018-03-28T20:28:30.060Z,6.40
2018-03-28T20:30:57.873Z,6.40
2018-03-28T20:33:25.630Z,6.40
2018-03-28T20:35:53.385Z,6.40
2018-03-28T20:38:21.190Z,6.40
2018-03-28T20:40:48.954Z,6.40
2018-03-28T20:43:16.712Z,6.40
2018-03-28T20:45:44.690Z,6.30
2018-03-28T20:48:12.480Z,6.40
2018-03-28T20:50:41.004Z,6.40
2018-03-28T20:53:08.826Z,6.30
2018-03-28T20:55:37.338Z,6.30
2018-03-28T20:58:05.105Z,6.30
2018-03-28T21:00:32.952Z,6.30
2018-03-28T21:03:00.781Z,6.30
2018-03-28T21:05:28.570Z,6.30
2018-03-28T21:07:56.527Z,6.20
2018-03-28T21:10:24.352Z,6.20
2018-03-28T21:12:52.132Z,6.20
2018-03-28T21:15:19.950Z,6.20
2018-03-28T21:17:47.729Z,6.20
2018-03-28T21:20:15.497Z,6.30
2018-03-28T21:22:43.327Z,6.30
2018-03-28T21:25:11.165Z,6.40
2018-03-28T21:27:40.942Z,6.40
2018-03-28T21:30:08.752Z,6.40
2018-03-28T21:32:36.573Z,6.40
2018-03-28T21:35:04.334Z,6.40
2018-03-28T21:37:32.150Z,6.40
2018-03-28T21:39:59.900Z,6.40
2018-03-28T21:42:27.688Z,6.40
2018-03-28T21:44:55.577Z,6.50
2018-03-28T21:47:23.348Z,6.50
2018-03-28T21:49:51.217Z,6.50
2018-03-28T21:52:19.022Z,6.50
2018-03-28T21:54:46.833Z,6.40
2018-03-28T21:57:14.668Z,6.30
2018-03-28T21:59:43.668Z,6.30
2018-03-28T22:02:11.430Z,6.20
2018-03-28T22:04:39.211Z,6.20
2018-03-28T22:07:07.123Z,6.20
2018-03-28T22:09:34.877Z,6.10
2018-03-28T22:12:02.816Z,6.10
2018-03-28T22:14:31.410Z,6.00
2018-03-28T22:16:59.242Z,6.00
2018-03-28T22:19:27.047Z,6.00
2018-03-28T22:21:54.874Z,5.90
2018-03-28T22:24:22.644Z,5.90
2018-03-28T22:26:50.409Z,5.80
2018-03-28T22:29:18.204Z,5.80
2018-03-28T22:31:45.952Z,5.80
2018-03-28T22:34:14.502Z,5.70
2018-03-28T22:36:42.317Z,5.70
2018-03-28T22:39:10.072Z,5.70
2018-03-28T22:41:37.846Z,5.70
2018-03-28T22:44:05.652Z,5.70
2018-03-28T22:46:33.401Z,5.70
2018-03-28T22:49:01.198Z,5.70
2018-03-28T22:51:29.006Z,5.70
2018-03-28T22:53:56.762Z,5.70
2018-03-28T22:56:24.515Z,5.80
2018-03-28T22:58:52.344Z,5.80
2018-03-28T23:01:20.101Z,5.80
2018-03-28T23:03:47.885Z,5.80
2018-03-28T23:06:16.458Z,5.80
2018-03-28T23:08:44.976Z,5.80
2018-03-28T23:11:12.726Z,5.80
2018-03-28T23:13:40.558Z,5.80
2018-03-28T23:16:09.093Z,5.80
2018-03-28T23:18:36.851Z,5.80
2018-03-28T23:21:04.667Z,5.80
2018-03-28T23:23:33.179Z,5.80
2018-03-28T23:26:00.927Z,5.80
2018-03-28T23:28:28.745Z,5.80
2018-03-28T23:30:56.498Z,5.80
2018-03-28T23:33:24.244Z,5.80
2018-03-28T23:35:52.902Z,5.80
2018-03-28T23:38:20.643Z,5.80
2018-03-28T23:40:49.158Z,5.70
2018-03-28T23:43:16.973Z,5.70
2018-03-28T23:45:45.489Z,5.80
2018-03-28T23:48:13.224Z,5.70
2018-03-28T23:50:41.788Z,5.80
2018-03-28T23:53:09.543Z,5.70
2018-03-28T23:55:37.307Z,5.80
2018-03-28T23:58:05.105Z,5.80
